sensor_id;sensor_type;location;lat;lon;timestamp;pressure;altitude;pressure_sealevel;temperature;humidity
21276;BME280;36472;52.170;20.884;2022-09-09T00:00:32;100221.72;;;11.72;100.00
21276;BME280;36472;52.170;20.884;2022-09-09T00:03:27;100225.75;;;11.65;100.00
21276;BME280;36472;52.170;20.884;2022-09-09T00:06:09;100216.78;;;11.68;100.00
21276;BME280;36472;52.170;20.884;2022-09-09T00:08:53;100219.88;;;11.62;100.00
21276;BME280;36472;52.170;20.884;2022-09-09T00:11:36;100218.41;;;11.57;100.00
21276;BME280;36472;52.170;20.884;2022-09-09T00:14:16;100214.13;;;11.56;100.00
21276;BME280;36472;52.170;20.884;2022-09-09T00:16:52;100215.47;;;11.49;100.00
21276;BME280;36472;52.170;20.884;2022-09-09T00:19:30;100225.91;;;11.51;100.00
21276;BME280;36472;52.170;20.884;2022-09-09T00:22:15;100217.47;;;11.58;100.00
21276;BME280;36472;52.170;20.884;2022-09-09T00:24:50;100223.25;;;11.51;100.00
21276;BME280;36472;52.170;20.884;2022-09-09T00:27:29;100225.59;;;11.42;100.00
21276;BME280;36472;52.170;20.884;2022-09-09T00:30:14;100226.13;;;11.48;100.00
21276;BME280;36472;52.170;20.884;2022-09-09T00:32:44;100229.94;;;11.44;100.00
21276;BME280;36472;52.170;20.884;2022-09-09T00:35:18;100225.97;;;11.38;100.00
21276;BME280;36472;52.170;20.884;2022-09-09T00:37:54;100225.44;;;11.33;100.00
21276;BME280;36472;52.170;20.884;2022-09-09T00:40:33;100226.25;;;11.46;100.00
21276;BME280;36472;52.170;20.884;2022-09-09T00:43:26;100225.75;;;11.41;100.00
21276;BME280;36472;52.170;20.884;2022-09-09T00:46:26;100219.09;;;11.35;100.00
21276;BME280;36472;52.170;20.884;2022-09-09T00:49:07;100232.38;;;11.34;100.00
21276;BME280;36472;52.170;20.884;2022-09-09T00:51:51;100237.13;;;11.29;100.00
21276;BME280;36472;52.170;20.884;2022-09-09T00:54:35;100237.13;;;11.29;100.00
21276;BME280;36472;52.170;20.884;2022-09-09T00:57:26;100232.47;;;11.32;100.00
21276;BME280;36472;52.170;20.884;2022-09-09T01:00:18;100231.22;;;11.38;100.00
21276;BME280;36472;52.170;20.884;2022-09-09T01:02:59;100215.03;;;11.31;100.00
21276;BME280;36472;52.170;20.884;2022-09-09T01:05:39;100212.31;;;11.20;100.00
21276;BME280;36472;52.170;20.884;2022-09-09T01:08:39;100204.00;;;11.26;100.00
21276;BME280;36472;52.170;20.884;2022-09-09T01:11:17;100211.25;;;11.22;100.00
21276;BME280;36472;52.170;20.884;2022-09-09T01:13:58;100211.47;;;11.19;100.00
21276;BME280;36472;52.170;20.884;2022-09-09T01:16:32;100206.00;;;11.22;100.00
21276;BME280;36472;52.170;20.884;2022-09-09T01:19:07;100197.91;;;11.26;100.00
21276;BME280;36472;52.170;20.884;2022-09-09T01:21:48;100205.53;;;11.29;100.00
21276;BME280;36472;52.170;20.884;2022-09-09T01:24:27;100211.31;;;11.34;100.00
21276;BME280;36472;52.170;20.884;2022-09-09T01:27:14;100202.19;;;11.27;100.00
21276;BME280;36472;52.170;20.884;2022-09-09T01:29:46;100204.28;;;11.34;100.00
21276;BME280;36472;52.170;20.884;2022-09-09T01:32:41;100201.31;;;11.39;100.00
21276;BME280;36472;52.170;20.884;2022-09-09T01:35:27;100201.81;;;11.44;100.00
21276;BME280;36472;52.170;20.884;2022-09-09T01:37:59;100202.78;;;11.43;100.00
21276;BME280;36472;52.170;20.884;2022-09-09T01:40:28;100208.66;;;11.47;100.00
21276;BME280;36472;52.170;20.884;2022-09-09T01:42:59;100210.69;;;11.43;100.00
21276;BME280;36472;52.170;20.884;2022-09-09T01:45:28;100216.66;;;11.45;100.00
21276;BME280;36472;52.170;20.884;2022-09-09T01:47:59;100218.09;;;11.49;100.00
21276;BME280;36472;52.170;20.884;2022-09-09T01:50:49;100211.69;;;11.53;100.00
21276;BME280;36472;52.170;20.884;2022-09-09T01:53:21;100205.34;;;11.56;100.00
21276;BME280;36472;52.170;20.884;2022-09-09T01:56:05;100203.41;;;11.47;100.00
21276;BME280;36472;52.170;20.884;2022-09-09T01:58:54;100206.66;;;11.50;100.00
21276;BME280;36472;52.170;20.884;2022-09-09T02:01:37;100203.81;;;11.53;100.00
21276;BME280;36472;52.170;20.884;2022-09-09T02:04:22;100209.06;;;11.53;100.00
21276;BME280;36472;52.170;20.884;2022-09-09T02:06:55;100203.81;;;11.53;100.00
21276;BME280;36472;52.170;20.884;2022-09-09T02:09:30;100197.13;;;11.60;100.00
21276;BME280;36472;52.170;20.884;2022-09-09T02:12:08;100194.72;;;11.57;100.00
21276;BME280;36472;52.170;20.884;2022-09-09T02:14:56;100191.78;;;11.49;100.00
21276;BME280;36472;52.170;20.884;2022-09-09T02:17:38;100190.97;;;11.49;100.00
21276;BME280;36472;52.170;20.884;2022-09-09T02:20:15;100196.00;;;11.52;100.00
21276;BME280;36472;52.170;20.884;2022-09-09T02:22:52;100195.19;;;11.51;100.00
21276;BME280;36472;52.170;20.884;2022-09-09T02:25:28;100190.03;;;11.50;100.00
21276;BME280;36472;52.170;20.884;2022-09-09T02:28:08;100201.31;;;11.63;100.00
21276;BME280;36472;52.170;20.884;2022-09-09T02:30:41;100210.28;;;11.60;100.00
21276;BME280;36472;52.170;20.884;2022-09-09T02:33:13;100204.13;;;11.49;100.00
21276;BME280;36472;52.170;20.884;2022-09-09T02:35:48;100210.41;;;11.59;100.00
21276;BME280;36472;52.170;20.884;2022-09-09T02:38:25;100211.13;;;11.61;100.00
21276;BME280;36472;52.170;20.884;2022-09-09T02:41:03;100210.28;;;11.60;100.00
21276;BME280;36472;52.170;20.884;2022-09-09T02:43:34;100204.41;;;11.57;100.00
21276;BME280;36472;52.170;20.884;2022-09-09T02:46:24;100215.34;;;11.64;100.00
21276;BME280;36472;52.170;20.884;2022-09-09T02:49:03;100202.06;;;11.65;100.00
21276;BME280;36472;52.170;20.884;2022-09-09T02:51:48;100205.75;;;11.63;100.00
21276;BME280;36472;52.170;20.884;2022-09-09T02:54:28;100213.66;;;11.63;100.00
21276;BME280;36472;52.170;20.884;2022-09-09T02:57:08;100207.97;;;11.56;100.00
21276;BME280;36472;52.170;20.884;2022-09-09T02:59:42;100208.19;;;11.53;100.00
21276;BME280;36472;52.170;20.884;2022-09-09T03:02:13;100207.97;;;11.56;100.00
21276;BME280;36472;52.170;20.884;2022-09-09T03:04:45;100207.88;;;11.57;100.00
21276;BME280;36472;52.170;20.884;2022-09-09T03:07:20;100213.03;;;11.59;100.00
21276;BME280;36472;52.170;20.884;2022-09-09T03:09:50;100200.50;;;11.63;100.00
21276;BME280;36472;52.170;20.884;2022-09-09T03:12:25;100201.00;;;11.68;100.00
21276;BME280;36472;52.170;20.884;2022-09-09T03:14:54;100204.59;;;11.67;100.00
21276;BME280;36472;52.170;20.884;2022-09-09T03:17:25;100199.56;;;11.64;100.00
21276;BME280;36472;52.170;20.884;2022-09-09T03:19:56;100195.50;;;11.71;100.00
21276;BME280;36472;52.170;20.884;2022-09-09T03:22:26;100197.06;;;11.73;100.00
21276;BME280;36472;52.170;20.884;2022-09-09T03:24:58;100193.81;;;11.70;100.00
21276;BME280;36472;52.170;20.884;2022-09-09T03:27:28;100197.41;;;11.69;100.00
21276;BME280;36472;52.170;20.884;2022-09-09T03:29:57;100196.31;;;11.60;100.00
21276;BME280;36472;52.170;20.884;2022-09-09T03:32:28;100198.03;;;11.72;100.00
21276;BME280;36472;52.170;20.884;2022-09-09T03:34:57;100199.38;;;11.78;100.00
21276;BME280;36472;52.170;20.884;2022-09-09T03:37:26;100192.38;;;11.66;100.00
21276;BME280;36472;52.170;20.884;2022-09-09T03:39:55;100205.44;;;11.67;100.00
21276;BME280;36472;52.170;20.884;2022-09-09T03:42:24;100196.44;;;11.70;100.00
21276;BME280;36472;52.170;20.884;2022-09-09T03:44:54;100209.06;;;11.77;100.00
21276;BME280;36472;52.170;20.884;2022-09-09T03:47:25;100206.75;;;11.73;100.00
21276;BME280;36472;52.170;20.884;2022-09-09T03:50:03;100214.88;;;11.70;100.00
21276;BME280;36472;52.170;20.884;2022-09-09T03:52:38;100203.69;;;11.79;100.00
21276;BME280;36472;52.170;20.884;2022-09-09T03:55:13;100211.38;;;11.82;100.00
21276;BME280;36472;52.170;20.884;2022-09-09T03:57:42;100199.16;;;11.81;100.00
21276;BME280;36472;52.170;20.884;2022-09-09T04:00:13;100209.69;;;11.81;100.00
21276;BME280;36472;52.170;20.884;2022-09-09T04:02:49;100206.09;;;11.82;100.00
21276;BME280;36472;52.170;20.884;2022-09-09T04:05:22;100207.88;;;11.82;100.00
21276;BME280;36472;52.170;20.884;2022-09-09T04:07:51;100211.69;;;11.77;100.00
21276;BME280;36472;52.170;20.884;2022-09-09T04:10:21;100206.31;;;11.79;100.00
21276;BME280;36472;52.170;20.884;2022-09-09T04:12:51;100204.19;;;11.84;100.00
21276;BME280;36472;52.170;20.884;2022-09-09T04:15:21;100205.34;;;11.80;100.00
21276;BME280;36472;52.170;20.884;2022-09-09T04:17:50;100201.06;;;11.79;100.00
21276;BME280;36472;52.170;20.884;2022-09-09T04:20:18;100207.03;;;11.81;100.00
21276;BME280;36472;52.170;20.884;2022-09-09T04:22:49;100198.31;;;11.81;100.00
21276;BME280;36472;52.170;20.884;2022-09-09T04:25:18;100205.13;;;11.83;100.00
21276;BME280;36472;52.170;20.884;2022-09-09T04:27:47;100202.16;;;11.88;100.00
21276;BME280;36472;52.170;20.884;2022-09-09T04:30:19;100203.97;;;11.87;100.00
21276;BME280;36472;52.170;20.884;2022-09-09T04:32:48;100208.25;;;11.88;100.00
21276;BME280;36472;52.170;20.884;2022-09-09T04:35:17;100209.78;;;11.92;100.00
21276;BME280;36472;52.170;20.884;2022-09-09T04:37:48;100210.72;;;11.91;100.00
21276;BME280;36472;52.170;20.884;2022-09-09T04:40:17;100210.78;;;11.90;100.00
21276;BME280;36472;52.170;20.884;2022-09-09T04:42:46;100205.84;;;11.85;100.00
21276;BME280;36472;52.170;20.884;2022-09-09T04:45:18;100211.63;;;11.90;100.00
21276;BME280;36472;52.170;20.884;2022-09-09T04:47:47;100213.75;;;11.85;100.00
21276;BME280;36472;52.170;20.884;2022-09-09T04:50:16;100219.78;;;11.87;100.00
21276;BME280;36472;52.170;20.884;2022-09-09T04:52:48;100224.50;;;11.95;100.00
21276;BME280;36472;52.170;20.884;2022-09-09T04:55:17;100218.59;;;11.91;100.00
21276;BME280;36472;52.170;20.884;2022-09-09T04:57:46;100221.03;;;11.94;100.00
21276;BME280;36472;52.170;20.884;2022-09-09T05:00:16;100221.41;;;12.01;100.00
21276;BME280;36472;52.170;20.884;2022-09-09T05:02:48;100219.84;;;11.98;100.00
21276;BME280;36472;52.170;20.884;2022-09-09T05:05:17;100215.06;;;12.04;100.00
21276;BME280;36472;52.170;20.884;2022-09-09T05:07:49;100222.97;;;12.04;100.00
21276;BME280;36472;52.170;20.884;2022-09-09T05:10:19;100228.63;;;12.10;100.00
21276;BME280;36472;52.170;20.884;2022-09-09T05:12:52;100227.06;;;12.08;100.00
21276;BME280;36472;52.170;20.884;2022-09-09T05:15:25;100234.88;;;12.09;100.00
21276;BME280;36472;52.170;20.884;2022-09-09T05:17:57;100228.94;;;12.06;100.00
21276;BME280;36472;52.170;20.884;2022-09-09T05:20:28;100230.53;;;12.08;100.00
21276;BME280;36472;52.170;20.884;2022-09-09T05:22:58;100231.03;;;12.13;100.00
21276;BME280;36472;52.170;20.884;2022-09-09T05:25:29;100233.06;;;12.10;100.00
21276;BME280;36472;52.170;20.884;2022-09-09T05:27:58;100236.19;;;12.15;100.00
21276;BME280;36472;52.170;20.884;2022-09-09T05:30:28;100237.84;;;12.16;100.00
21276;BME280;36472;52.170;20.884;2022-09-09T05:33:00;100231.88;;;12.14;100.00
21276;BME280;36472;52.170;20.884;2022-09-09T05:35:28;100230.69;;;12.18;100.00
21276;BME280;36472;52.170;20.884;2022-09-09T05:38:00;100227.09;;;12.19;100.00
21276;BME280;36472;52.170;20.884;2022-09-09T05:40:29;100226.88;;;12.22;100.00
21276;BME280;36472;52.170;20.884;2022-09-09T05:43:00;100226.25;;;12.19;100.00
21276;BME280;36472;52.170;20.884;2022-09-09T05:45:30;100231.91;;;12.25;100.00
21276;BME280;36472;52.170;20.884;2022-09-09T05:48:01;100227.25;;;12.29;100.00
21276;BME280;36472;52.170;20.884;2022-09-09T05:50:30;100229.19;;;12.38;100.00
21276;BME280;36472;52.170;20.884;2022-09-09T05:53:00;100236.97;;;12.28;100.00
21276;BME280;36472;52.170;20.884;2022-09-09T05:55:29;100236.97;;;12.28;100.00
21276;BME280;36472;52.170;20.884;2022-09-09T05:57:58;100237.34;;;12.35;100.00
21276;BME280;36472;52.170;20.884;2022-09-09T06:00:27;100248.72;;;12.35;100.00
21276;BME280;36472;52.170;20.884;2022-09-09T06:02:59;100245.34;;;12.33;100.00
21276;BME280;36472;52.170;20.884;2022-09-09T06:05:29;100246.78;;;12.38;100.00
21276;BME280;36472;52.170;20.884;2022-09-09T06:08:00;100250.38;;;12.37;100.00
21276;BME280;36472;52.170;20.884;2022-09-09T06:10:29;100247.63;;;12.38;100.00
21276;BME280;36472;52.170;20.884;2022-09-09T06:12:58;100255.66;;;12.37;100.00
21276;BME280;36472;52.170;20.884;2022-09-09T06:15:27;100258.44;;;12.46;100.00
21276;BME280;36472;52.170;20.884;2022-09-09T06:17:58;100260.47;;;12.43;100.00
21276;BME280;36472;52.170;20.884;2022-09-09T06:20:26;100258.06;;;12.40;100.00
21276;BME280;36472;52.170;20.884;2022-09-09T06:22:59;100254.00;;;12.47;100.00
21276;BME280;36472;52.170;20.884;2022-09-09T06:25:28;100265.50;;;12.46;100.00
21276;BME280;36472;52.170;20.884;2022-09-09T06:27:57;100262.16;;;12.44;100.00
21276;BME280;36472;52.170;20.884;2022-09-09T06:30:26;100264.78;;;12.44;100.00
21276;BME280;36472;52.170;20.884;2022-09-09T06:32:55;100257.59;;;12.46;100.00
21276;BME280;36472;52.170;20.884;2022-09-09T06:35:25;100257.22;;;12.39;100.00
21276;BME280;36472;52.170;20.884;2022-09-09T06:37:54;100274.97;;;12.48;100.00
21276;BME280;36472;52.170;20.884;2022-09-09T06:40:24;100271.50;;;12.48;100.00
21276;BME280;36472;52.170;20.884;2022-09-09T06:42:53;100268.03;;;12.47;100.00
21276;BME280;36472;52.170;20.884;2022-09-09T06:45:33;100272.59;;;12.57;100.00
21276;BME280;36472;52.170;20.884;2022-09-09T06:48:04;100266.03;;;12.62;100.00
21276;BME280;36472;52.170;20.884;2022-09-09T06:50:32;100273.47;;;12.57;100.00
21276;BME280;36472;52.170;20.884;2022-09-09T06:53:03;100271.06;;;12.65;100.00
21276;BME280;36472;52.170;20.884;2022-09-09T06:55:32;100271.66;;;12.69;100.00
21276;BME280;36472;52.170;20.884;2022-09-09T06:58:02;100273.34;;;12.70;100.00
21276;BME280;36472;52.170;20.884;2022-09-09T07:00:31;100271.31;;;12.73;100.00
21276;BME280;36472;52.170;20.884;2022-09-09T07:03:00;100265.94;;;12.75;100.00
21276;BME280;36472;52.170;20.884;2022-09-09T07:05:28;100276.13;;;12.80;100.00
21276;BME280;36472;52.170;20.884;2022-09-09T07:07:57;100273.97;;;12.73;100.00
21276;BME280;36472;52.170;20.884;2022-09-09T07:10:26;100278.19;;;12.76;100.00
21276;BME280;36472;52.170;20.884;2022-09-09T07:12:56;100277.44;;;12.74;100.00
21276;BME280;36472;52.170;20.884;2022-09-09T07:15:26;100281.97;;;12.72;100.00
21276;BME280;36472;52.170;20.884;2022-09-09T07:17:55;100286.44;;;12.71;100.00
21276;BME280;36472;52.170;20.884;2022-09-09T07:20:23;100286.19;;;12.75;100.00
21276;BME280;36472;52.170;20.884;2022-09-09T07:22:55;100283.78;;;12.71;100.00
21276;BME280;36472;52.170;20.884;2022-09-09T07:25:25;100289.28;;;12.68;100.00
21276;BME280;36472;52.170;20.884;2022-09-09T07:27:58;100286.81;;;12.78;100.00
21276;BME280;36472;52.170;20.884;2022-09-09T07:30:27;100286.47;;;12.83;100.00
21276;BME280;36472;52.170;20.884;2022-09-09T07:32:57;100283.69;;;12.96;100.00
21276;BME280;36472;52.170;20.884;2022-09-09T07:35:27;100288.88;;;13.08;100.00
21276;BME280;36472;52.170;20.884;2022-09-09T07:37:55;100279.25;;;12.96;100.00
21276;BME280;36472;52.170;20.884;2022-09-09T07:40:25;100283.59;;;13.08;100.00
21276;BME280;36472;52.170;20.884;2022-09-09T07:42:54;100292.00;;;13.14;100.00
21276;BME280;36472;52.170;20.884;2022-09-09T07:45:24;100292.94;;;13.13;100.00
21276;BME280;36472;52.170;20.884;2022-09-09T07:47:56;100298.56;;;13.08;100.00
21276;BME280;36472;52.170;20.884;2022-09-09T07:50:25;100307.56;;;13.17;100.00
21276;BME280;36472;52.170;20.884;2022-09-09T07:52:54;100314.28;;;13.09;100.00
21276;BME280;36472;52.170;20.884;2022-09-09T07:55:25;100321.50;;;13.07;100.00
21276;BME280;36472;52.170;20.884;2022-09-09T07:57:55;100326.06;;;13.05;100.00
21276;BME280;36472;52.170;20.884;2022-09-09T08:00:25;100330.00;;;13.11;100.00
21276;BME280;36472;52.170;20.884;2022-09-09T08:02:57;100334.44;;;13.10;100.00
21276;BME280;36472;52.170;20.884;2022-09-09T08:05:28;100336.25;;;13.21;100.00
21276;BME280;36472;52.170;20.884;2022-09-09T08:07:57;100340.34;;;13.14;100.00
21276;BME280;36472;52.170;20.884;2022-09-09T08:10:26;100331.69;;;13.12;100.00
21276;BME280;36472;52.170;20.884;2022-09-09T08:12:55;100333.38;;;13.13;100.00
21276;BME280;36472;52.170;20.884;2022-09-09T08:15:46;100343.56;;;13.18;100.00
21276;BME280;36472;52.170;20.884;2022-09-09T08:18:14;100334.69;;;13.07;100.00
21276;BME280;36472;52.170;20.884;2022-09-09T08:20:44;100339.97;;;13.19;100.00
21276;BME280;36472;52.170;20.884;2022-09-09T08:23:14;100334.69;;;13.30;100.00
21276;BME280;36472;52.170;20.884;2022-09-09T08:25:43;100330.91;;;13.34;100.00
21276;BME280;36472;52.170;20.884;2022-09-09T08:28:14;100332.34;;;13.38;100.00
21276;BME280;36472;52.170;20.884;2022-09-09T08:30:42;100328.25;;;13.45;100.00
21276;BME280;36472;52.170;20.884;2022-09-09T08:33:12;100333.75;;;13.42;100.00
21276;BME280;36472;52.170;20.884;2022-09-09T08:35:50;100340.28;;;13.50;100.00
21276;BME280;36472;52.170;20.884;2022-09-09T08:38:20;100346.84;;;13.55;100.00
21276;BME280;36472;52.170;20.884;2022-09-09T08:40:53;100339.78;;;13.67;100.00
21276;BME280;36472;52.170;20.884;2022-09-09T08:43:30;100343.59;;;13.74;100.00
21276;BME280;36472;52.170;20.884;2022-09-09T08:46:07;100343.59;;;13.74;100.00
21276;BME280;36472;52.170;20.884;2022-09-09T08:48:52;100348.75;;;13.76;100.00
21276;BME280;36472;52.170;20.884;2022-09-09T08:51:27;100356.44;;;13.68;100.00
21276;BME280;36472;52.170;20.884;2022-09-09T08:54:02;100342.66;;;13.64;100.00
21276;BME280;36472;52.170;20.884;2022-09-09T08:56:33;100351.91;;;13.58;100.00
21276;BME280;36472;52.170;20.884;2022-09-09T08:59:04;100353.91;;;13.66;100.00
21276;BME280;36472;52.170;20.884;2022-09-09T09:01:53;100346.03;;;13.55;100.00
21276;BME280;36472;52.170;20.884;2022-09-09T09:05:00;100342.41;;;13.67;100.00
21276;BME280;36472;52.170;20.884;2022-09-09T09:07:49;100348.16;;;13.83;100.00
21276;BME280;36472;52.170;20.884;2022-09-09T09:10:43;100357.41;;;13.78;100.00
21276;BME280;36472;52.170;20.884;2022-09-09T09:13:20;100350.56;;;13.75;100.00
21276;BME280;36472;52.170;20.884;2022-09-09T09:16:00;100357.75;;;13.96;100.00
21276;BME280;36472;52.170;20.884;2022-09-09T09:18:31;100365.78;;;13.94;100.00
21276;BME280;36472;52.170;20.884;2022-09-09T09:21:12;100375.13;;;13.98;100.00
21276;BME280;36472;52.170;20.884;2022-09-09T09:23:50;100367.13;;;13.89;100.00
21276;BME280;36472;52.170;20.884;2022-09-09T09:26:26;100375.53;;;13.94;100.00
21276;BME280;36472;52.170;20.884;2022-09-09T09:29:01;100364.97;;;13.94;100.00
21276;BME280;36472;52.170;20.884;2022-09-09T09:31:36;100368.06;;;13.99;100.00
21276;BME280;36472;52.170;20.884;2022-09-09T09:34:07;100372.50;;;13.98;100.00
21276;BME280;36472;52.170;20.884;2022-09-09T09:36:44;100368.06;;;13.99;100.00
21276;BME280;36472;52.170;20.884;2022-09-09T09:39:25;100366.03;;;13.91;100.00
21276;BME280;36472;52.170;20.884;2022-09-09T09:42:17;100366.28;;;13.88;100.00
21276;BME280;36472;52.170;20.884;2022-09-09T09:44:51;100369.97;;;13.97;100.00
21276;BME280;36472;52.170;20.884;2022-09-09T09:47:23;100373.00;;;13.92;100.00
21276;BME280;36472;52.170;20.884;2022-09-09T09:50:01;100371.91;;;14.06;100.00
21276;BME280;36472;52.170;20.884;2022-09-09T09:52:41;100373.06;;;14.25;100.00
21276;BME280;36472;52.170;20.884;2022-09-09T09:55:14;100373.06;;;14.25;100.00
21276;BME280;36472;52.170;20.884;2022-09-09T09:57:46;100372.91;;;14.26;100.00
21276;BME280;36472;52.170;20.884;2022-09-09T10:00:17;100374.72;;;14.26;100.00
21276;BME280;36472;52.170;20.884;2022-09-09T10:03:00;100374.47;;;14.29;100.00
21276;BME280;36472;52.170;20.884;2022-09-09T10:05:36;100382.78;;;14.24;100.00
21276;BME280;36472;52.170;20.884;2022-09-09T10:08:14;100389.63;;;14.27;100.00
21276;BME280;36472;52.170;20.884;2022-09-09T10:11:19;100386.97;;;14.27;100.00
21276;BME280;36472;52.170;20.884;2022-09-09T10:14:04;100385.09;;;14.06;100.00
21276;BME280;36472;52.170;20.884;2022-09-09T10:16:52;100389.88;;;14.24;100.00
21276;BME280;36472;52.170;20.884;2022-09-09T10:19:31;100387.22;;;14.35;100.00
21276;BME280;36472;52.170;20.884;2022-09-09T10:22:20;100398.63;;;14.24;100.00
21276;BME280;36472;52.170;20.884;2022-09-09T10:25:17;100396.34;;;14.31;100.00
21276;BME280;36472;52.170;20.884;2022-09-09T10:28:10;100396.34;;;14.31;100.00
21276;BME280;36472;52.170;20.884;2022-09-09T10:30:56;100405.56;;;14.36;100.00
21276;BME280;36472;52.170;20.884;2022-09-09T10:33:38;100409.19;;;14.35;100.00
21276;BME280;36472;52.170;20.884;2022-09-09T10:36:18;100418.88;;;14.46;100.00
21276;BME280;36472;52.170;20.884;2022-09-09T10:38:52;100421.53;;;14.46;100.00
21276;BME280;36472;52.170;20.884;2022-09-09T10:41:42;100427.69;;;14.35;100.00
21276;BME280;36472;52.170;20.884;2022-09-09T10:44:39;100421.81;;;14.32;100.00
21276;BME280;36472;52.170;20.884;2022-09-09T10:47:43;100429.13;;;14.39;100.00
21276;BME280;36472;52.170;20.884;2022-09-09T10:53:53;100430.69;;;14.42;100.00
21276;BME280;36472;52.170;20.884;2022-09-09T10:56:28;100444.38;;;14.47;100.00
21276;BME280;36472;52.170;20.884;2022-09-09T10:59:04;100441.97;;;14.44;100.00
21276;BME280;36472;52.170;20.884;2022-09-09T11:01:41;100442.19;;;14.52;100.00
21276;BME280;36472;52.170;20.884;2022-09-09T11:04:19;100441.72;;;14.58;100.00
21276;BME280;36472;52.170;20.884;2022-09-09T11:06:54;100443.53;;;14.47;100.00
21276;BME280;36472;52.170;20.884;2022-09-09T11:09:29;100449.31;;;14.40;100.00
21276;BME280;36472;52.170;20.884;2022-09-09T11:12:01;100453.31;;;14.35;100.00
21276;BME280;36472;52.170;20.884;2022-09-09T11:14:39;100442.44;;;14.38;100.00
21276;BME280;36472;52.170;20.884;2022-09-09T11:17:15;100450.63;;;14.46;100.00
21276;BME280;36472;52.170;20.884;2022-09-09T11:19:45;100442.22;;;14.41;100.00
21276;BME280;36472;52.170;20.884;2022-09-09T11:22:27;100446.44;;;14.44;100.00
21276;BME280;36472;52.170;20.884;2022-09-09T11:25:02;100448.84;;;14.47;100.00
21276;BME280;36472;52.170;20.884;2022-09-09T11:27:42;100456.63;;;14.59;100.00
21276;BME280;36472;52.170;20.884;2022-09-09T11:30:19;100454.94;;;14.58;100.00
21276;BME280;36472;52.170;20.884;2022-09-09T11:36:55;100453.50;;;14.66;100.00
21276;BME280;36472;52.170;20.884;2022-09-09T11:39:48;100458.50;;;14.69;100.00
21276;BME280;36472;52.170;20.884;2022-09-09T11:42:23;100459.03;;;14.63;100.00
21276;BME280;36472;52.170;20.884;2022-09-09T11:44:53;100456.84;;;14.68;100.00
21276;BME280;36472;52.170;20.884;2022-09-09T11:47:27;100463.44;;;14.73;100.00
21276;BME280;36472;52.170;20.884;2022-09-09T11:50:10;100459.25;;;14.71;100.00
21276;BME280;36472;52.170;20.884;2022-09-09T11:52:43;100455.63;;;14.72;100.00
21276;BME280;36472;52.170;20.884;2022-09-09T11:55:28;100456.53;;;14.82;100.00
21276;BME280;36472;52.170;20.884;2022-09-09T11:58:02;100463.41;;;14.85;100.00
21276;BME280;36472;52.170;20.884;2022-09-09T12:00:36;100457.34;;;14.94;100.00
21276;BME280;36472;52.170;20.884;2022-09-09T12:03:31;100460.78;;;15.06;100.00
21276;BME280;36472;52.170;20.884;2022-09-09T12:06:17;100462.47;;;15.07;100.00
21276;BME280;36472;52.170;20.884;2022-09-09T12:08:52;100473.44;;;15.02;100.00
21276;BME280;36472;52.170;20.884;2022-09-09T12:11:27;100466.44;;;15.01;100.00
21276;BME280;36472;52.170;20.884;2022-09-09T12:13:59;100472.25;;;14.95;100.00
21276;BME280;36472;52.170;20.884;2022-09-09T12:16:32;100468.00;;;14.83;100.00
21276;BME280;36472;52.170;20.884;2022-09-09T12:19:14;100466.31;;;14.70;100.00
21276;BME280;36472;52.170;20.884;2022-09-09T12:21:53;100468.34;;;14.78;100.00
21276;BME280;36472;52.170;20.884;2022-09-09T12:24:32;100473.78;;;14.76;100.00
21276;BME280;36472;52.170;20.884;2022-09-09T12:27:16;100463.66;;;14.82;100.00
21276;BME280;36472;52.170;20.884;2022-09-09T12:29:57;100467.22;;;14.92;100.00
21276;BME280;36472;52.170;20.884;2022-09-09T12:32:30;100463.91;;;15.00;100.00
21276;BME280;36472;52.170;20.884;2022-09-09T12:35:03;100472.47;;;15.03;100.00
21276;BME280;36472;52.170;20.884;2022-09-09T12:37:37;100464.59;;;15.13;100.00
21276;BME280;36472;52.170;20.884;2022-09-09T12:40:21;100459.88;;;15.17;100.00
21276;BME280;36472;52.170;20.884;2022-09-09T12:42:51;100460.19;;;15.23;100.00
21276;BME280;36472;52.170;20.884;2022-09-09T12:45:23;100458.47;;;15.33;100.00
21276;BME280;36472;52.170;20.884;2022-09-09T12:47:58;100460.84;;;15.37;100.00
21276;BME280;36472;52.170;20.884;2022-09-09T12:50:32;100457.06;;;15.29;100.00
21276;BME280;36472;52.170;20.884;2022-09-09T12:53:07;100456.66;;;15.13;100.00
21276;BME280;36472;52.170;20.884;2022-09-09T12:55:39;100462.25;;;14.99;100.00
21276;BME280;36472;52.170;20.884;2022-09-09T12:58:16;100463.56;;;15.04;100.00
21276;BME280;36472;52.170;20.884;2022-09-09T13:00:51;100466.84;;;15.18;100.00
21276;BME280;36472;52.170;20.884;2022-09-09T13:03:23;100457.69;;;15.22;100.00
21276;BME280;36472;52.170;20.884;2022-09-09T13:05:53;100456.06;;;15.09;100.00
21276;BME280;36472;52.170;20.884;2022-09-09T13:08:27;100459.53;;;15.10;100.00
21276;BME280;36472;52.170;20.884;2022-09-09T13:11:00;100446.13;;;15.02;100.00
21276;BME280;36472;52.170;20.884;2022-09-09T13:13:36;100463.59;;;15.25;100.00
21276;BME280;36472;52.170;20.884;2022-09-09T13:16:17;100454.44;;;15.18;100.00
21276;BME280;36472;52.170;20.884;2022-09-09T13:18:49;100444.06;;;15.26;100.00